Time;durP1;ratioP1;P1;durP2;ratioP2;P2;SDS_P1;SDS_P2;PMS_P1;PMS_P2;Temp;Humidity;BMP_temperature;BMP_pressure;BME280_temperature;BME280_humidity;BME280_pressure;Samples;Min_cycle;Max_cycle;Signal;HPM_P1;HPM_P2
2022/07/06 00:01:36;;;;;;;6.50;5.90;;;;;;;;;;5025484;28;20188;-67
2022/07/06 00:04:03;;;;;;;6.72;5.82;;;;;;;;;;5024781;28;20038;-67
2022/07/06 00:06:28;;;;;;;6.63;6.13;;;;;;;;;;5024874;28;20034;-67
2022/07/06 00:08:54;;;;;;;6.60;6.10;;;;;;;;;;5027509;28;20034;-67
2022/07/06 00:11:20;;;;;;;6.95;6.18;;;;;;;;;;5027576;28;20052;-67
2022/07/06 00:13:46;;;;;;;6.68;6.18;;;;;;;;;;5026926;28;20097;-67
2022/07/06 00:16:12;;;;;;;8.10;6.20;;;;;;;;;;5023877;28;20037;-67
2022/07/06 00:18:37;;;;;;;7.40;6.68;;;;;;;;;;5026299;28;20460;-67
2022/07/06 00:21:03;;;;;;;7.18;6.50;;;;;;;;;;5028031;28;20029;-67
2022/07/06 00:23:34;;;;;;;6.80;6.30;;;;;;;;;;5027912;28;20042;-67
2022/07/06 00:25:59;;;;;;;8.65;6.20;;;;;;;;;;5027424;28;20503;-67
2022/07/06 00:28:25;;;;;;;7.00;6.30;;;;;;;;;;5029914;28;20083;-67
2022/07/06 00:30:52;;;;;;;6.80;6.30;;;;;;;;;;5029076;28;20079;-67
2022/07/06 00:33:17;;;;;;;7.90;6.65;;;;;;;;;;5026504;28;20096;-67
2022/07/06 00:35:43;;;;;;;6.63;6.05;;;;;;;;;;5028106;28;20033;-67
2022/07/06 00:38:08;;;;;;;6.93;6.03;;;;;;;;;;5028395;28;20809;-67
2022/07/06 00:40:34;;;;;;;6.80;6.30;;;;;;;;;;5023557;28;20121;-67
2022/07/06 00:43:00;;;;;;;7.05;6.50;;;;;;;;;;5025906;28;20041;-67
2022/07/06 00:45:26;;;;;;;6.57;6.07;;;;;;;;;;5028613;28;20405;-67
2022/07/06 00:47:52;;;;;;;6.65;6.05;;;;;;;;;;5031731;28;20057;-67
2022/07/06 00:50:20;;;;;;;7.18;6.50;;;;;;;;;;5026162;28;20500;-67
2022/07/06 00:52:56;;;;;;;9.10;6.70;;;;;;;;;;5028200;28;20524;-67
2022/07/06 00:55:24;;;;;;;7.53;6.70;;;;;;;;;;5028621;28;20034;-67
2022/07/06 00:57:51;;;;;;;8.32;6.47;;;;;;;;;;5027967;28;20052;-67
2022/07/06 01:00:20;;;;;;;7.43;6.82;;;;;;;;;;5026124;28;20034;-67
2022/07/06 01:02:46;;;;;;;7.35;6.75;;;;;;;;;;5028513;28;20047;-67
2022/07/06 01:05:13;;;;;;;8.25;6.90;;;;;;;;;;5026047;28;20037;-67
2022/07/06 01:07:41;;;;;;;7.35;6.78;;;;;;;;;;5029072;28;20029;-67
2022/07/06 01:10:08;;;;;;;7.10;6.60;;;;;;;;;;5029906;28;20045;-67
2022/07/06 01:12:36;;;;;;;7.20;6.70;;;;;;;;;;5027674;28;20163;-67
2022/07/06 01:15:10;;;;;;;8.73;7.30;;;;;;;;;;5023010;28;20485;-67
2022/07/06 01:17:37;;;;;;;7.72;7.03;;;;;;;;;;5028129;28;20032;-67
2022/07/06 01:20:14;;;;;;;7.35;6.75;;;;;;;;;;5029445;28;20030;-66
2022/07/06 01:22:39;;;;;;;7.40;6.80;;;;;;;;;;5026694;28;20046;-67
2022/07/06 01:25:06;;;;;;;7.55;6.88;;;;;;;;;;5026147;28;20044;-67
2022/07/06 01:27:38;;;;;;;7.63;7.00;;;;;;;;;;5024675;28;20056;-67
2022/07/06 01:30:06;;;;;;;9.38;6.95;;;;;;;;;;5029384;28;20104;-67
2022/07/06 01:32:32;;;;;;;7.20;6.60;;;;;;;;;;5027629;28;20063;-67
2022/07/06 01:34:57;;;;;;;7.88;6.90;;;;;;;;;;5026489;28;20698;-67
2022/07/06 01:37:23;;;;;;;7.40;6.80;;;;;;;;;;5027244;28;20030;-67
2022/07/06 01:39:48;;;;;;;8.23;7.32;;;;;;;;;;5028040;28;20159;-68
2022/07/06 01:42:14;;;;;;;8.20;7.50;;;;;;;;;;5025681;28;20120;-68
2022/07/06 01:44:40;;;;;;;7.18;6.68;;;;;;;;;;5027227;28;20496;-67
2022/07/06 01:47:05;;;;;;;7.22;6.72;;;;;;;;;;5029312;28;20037;-67
2022/07/06 01:49:31;;;;;;;8.63;7.10;;;;;;;;;;5026490;28;20045;-68
2022/07/06 01:51:57;;;;;;;7.57;6.88;;;;;;;;;;5025842;28;20041;-68
2022/07/06 01:54:23;;;;;;;8.23;7.15;;;;;;;;;;5026962;28;20044;-68
2022/07/06 01:56:48;;;;;;;7.93;7.00;;;;;;;;;;5009874;28;20042;-68
2022/07/06 01:59:14;;;;;;;7.72;6.80;;;;;;;;;;5027306;28;20546;-68
2022/07/06 02:01:40;;;;;;;8.00;7.18;;;;;;;;;;5022020;28;20136;-67
2022/07/06 02:04:05;;;;;;;7.78;7.05;;;;;;;;;;5025790;28;20124;-67
2022/07/06 02:06:31;;;;;;;7.68;6.97;;;;;;;;;;5027684;28;20041;-67
2022/07/06 02:08:57;;;;;;;7.43;6.80;;;;;;;;;;5026149;28;20041;-68
2022/07/06 02:11:23;;;;;;;7.60;6.80;;;;;;;;;;5025297;28;20523;-67
2022/07/06 02:13:49;;;;;;;7.47;6.85;;;;;;;;;;5026432;28;20038;-67
2022/07/06 02:16:15;;;;;;;7.55;6.93;;;;;;;;;;5027921;28;20051;-67
2022/07/06 02:18:41;;;;;;;8.07;7.35;;;;;;;;;;5024085;28;20041;-68
2022/07/06 02:21:07;;;;;;;7.50;6.93;;;;;;;;;;5027100;28;20075;-67
2022/07/06 02:23:32;;;;;;;7.95;7.35;;;;;;;;;;5028639;28;20095;-67
2022/07/06 02:25:58;;;;;;;8.13;7.38;;;;;;;;;;5026684;28;20025;-67
2022/07/06 02:28:24;;;;;;;8.00;7.30;;;;;;;;;;5025918;28;20045;-67
2022/07/06 02:30:51;;;;;;;9.75;7.32;;;;;;;;;;5025482;28;20045;-66
2022/07/06 02:33:17;;;;;;;7.70;6.90;;;;;;;;;;5025762;28;20029;-67
2022/07/06 02:35:43;;;;;;;7.38;6.78;;;;;;;;;;5026255;28;20091;-67
2022/07/06 02:38:10;;;;;;;9.25;7.25;;;;;;;;;;5024219;28;20033;-67
2022/07/06 02:40:36;;;;;;;7.57;6.82;;;;;;;;;;5022845;28;20076;-67
2022/07/06 02:43:02;;;;;;;7.55;6.72;;;;;;;;;;5026610;28;20087;-67
2022/07/06 02:45:28;;;;;;;7.30;6.80;;;;;;;;;;5022966;28;20029;-67
2022/07/06 02:47:56;;;;;;;7.47;6.70;;;;;;;;;;5024241;28;20184;-67
2022/07/06 02:50:24;;;;;;;7.38;6.78;;;;;;;;;;5025665;28;20064;-67
2022/07/06 02:52:55;;;;;;;7.45;6.95;;;;;;;;;;5020626;28;20073;-68
2022/07/06 02:55:21;;;;;;;7.45;6.75;;;;;;;;;;5018436;28;20886;-67
2022/07/06 02:57:49;;;;;;;7.45;6.82;;;;;;;;;;5026818;28;20029;-67
2022/07/06 03:00:16;;;;;;;8.80;7.93;;;;;;;;;;5025442;28;20042;-67
2022/07/06 03:02:42;;;;;;;7.30;6.80;;;;;;;;;;5025494;28;20037;-67
2022/07/06 03:05:09;;;;;;;8.50;6.63;;;;;;;;;;5022911;28;21478;-68
2022/07/06 03:07:34;;;;;;;7.72;6.90;;;;;;;;;;5027362;28;20021;-67
2022/07/06 03:10:01;;;;;;;8.52;7.15;;;;;;;;;;5026699;28;20041;-67
2022/07/06 03:12:27;;;;;;;8.10;7.30;;;;;;;;;;5019106;28;20044;-65
2022/07/06 03:14:53;;;;;;;8.00;7.25;;;;;;;;;;5024750;28;20038;-65
2022/07/06 03:17:19;;;;;;;7.55;6.85;;;;;;;;;;5025528;28;20033;-65
2022/07/06 03:19:45;;;;;;;7.60;7.00;;;;;;;;;;5023484;28;20033;-65
2022/07/06 03:22:11;;;;;;;7.60;6.95;;;;;;;;;;5028640;28;20106;-65
2022/07/06 03:24:37;;;;;;;9.80;7.28;;;;;;;;;;5025310;28;20041;-65
2022/07/06 03:27:04;;;;;;;8.65;6.90;;;;;;;;;;5025088;28;20492;-65
2022/07/06 03:29:30;;;;;;;7.82;7.03;;;;;;;;;;5023345;28;20048;-64
2022/07/06 03:31:56;;;;;;;9.60;7.60;;;;;;;;;;5027651;28;20041;-65
2022/07/06 03:34:23;;;;;;;8.73;7.93;;;;;;;;;;5026527;28;20587;-65
2022/07/06 03:36:49;;;;;;;8.23;7.40;;;;;;;;;;5022079;28;20037;-65
2022/07/06 03:39:15;;;;;;;8.27;7.47;;;;;;;;;;5023123;28;20037;-64
2022/07/06 03:41:41;;;;;;;8.98;7.30;;;;;;;;;;5024958;28;20058;-65
2022/07/06 03:44:08;;;;;;;7.93;7.22;;;;;;;;;;5026126;28;20040;-65
2022/07/06 03:46:34;;;;;;;8.40;7.60;;;;;;;;;;5024200;28;20021;-65
2022/07/06 03:49:01;;;;;;;7.97;7.30;;;;;;;;;;5040583;28;20477;-65
2022/07/06 03:51:27;;;;;;;8.35;7.63;;;;;;;;;;5026564;28;20099;-64
2022/07/06 03:53:53;;;;;;;9.50;7.45;;;;;;;;;;5026968;28;20029;-65
2022/07/06 03:56:27;;;;;;;8.10;7.40;;;;;;;;;;5022608;28;20069;-64
2022/07/06 03:58:56;;;;;;;8.65;7.28;;;;;;;;;;5029278;28;20043;-65
2022/07/06 04:01:22;;;;;;;7.95;7.25;;;;;;;;;;5029008;28;20401;-64
2022/07/06 04:03:48;;;;;;;8.15;7.55;;;;;;;;;;5028943;28;20116;-65
2022/07/06 04:06:14;;;;;;;8.27;7.50;;;;;;;;;;5026208;28;20116;-65
2022/07/06 04:08:40;;;;;;;8.38;7.72;;;;;;;;;;5028567;28;20065;-64
2022/07/06 04:11:06;;;;;;;8.50;7.75;;;;;;;;;;5030429;28;20029;-64
2022/07/06 04:13:31;;;;;;;7.68;7.05;;;;;;;;;;5025802;28;20048;-65
2022/07/06 04:15:57;;;;;;;8.15;7.40;;;;;;;;;;5029183;28;20097;-65
2022/07/06 04:18:24;;;;;;;8.00;7.40;;;;;;;;;;5031992;28;20084;-65
2022/07/06 04:20:53;;;;;;;;;;;;;;;;;;5028333;28;20081;-65
2022/07/06 04:23:19;;;;;;;7.93;7.22;;;;;;;;;;5033742;28;19953;-66
2022/07/06 04:25:44;;;;;;;8.02;7.43;;;;;;;;;;5029669;28;20042;-65
2022/07/06 04:28:11;;;;;;;8.10;7.40;;;;;;;;;;5028443;28;20041;-65
2022/07/06 04:30:37;;;;;;;7.93;7.32;;;;;;;;;;5024359;28;20083;-65
2022/07/06 04:33:05;;;;;;;8.20;7.60;;;;;;;;;;5028945;28;20037;-67
2022/07/06 04:35:33;;;;;;;7.82;7.32;;;;;;;;;;5028754;28;20045;-65
2022/07/06 04:37:58;;;;;;;8.30;7.25;;;;;;;;;;5029764;28;20034;-66
2022/07/06 04:40:25;;;;;;;8.20;7.55;;;;;;;;;;5028878;28;20045;-67
2022/07/06 04:42:55;;;;;;;9.68;7.55;;;;;;;;;;5028380;28;20061;-65
2022/07/06 04:45:22;;;;;;;8.02;7.45;;;;;;;;;;5025572;28;20087;-66
2022/07/06 04:47:47;;;;;;;7.72;6.95;;;;;;;;;;5027699;28;20101;-65
2022/07/06 04:50:14;;;;;;;8.77;7.32;;;;;;;;;;5029230;28;20041;-64
2022/07/06 04:52:41;;;;;;;7.93;7.35;;;;;;;;;;5028916;28;20084;-64
2022/07/06 04:55:08;;;;;;;8.38;7.75;;;;;;;;;;5026775;28;20045;-65
2022/07/06 04:57:34;;;;;;;8.55;7.35;;;;;;;;;;5027965;28;20043;-65
2022/07/06 05:00:01;;;;;;;10.38;7.80;;;;;;;;;;5030794;28;20053;-65
2022/07/06 05:02:29;;;;;;;8.23;7.43;;;;;;;;;;5028911;28;20041;-65
2022/07/06 05:04:55;;;;;;;8.68;7.80;;;;;;;;;;5024146;28;20306;-65
2022/07/06 05:07:22;;;;;;;9.82;7.80;;;;;;;;;;5021560;28;20088;-65
2022/07/06 05:09:48;;;;;;;11.20;8.48;;;;;;;;;;5022513;28;20125;-66
2022/07/06 05:12:13;;;;;;;8.25;7.43;;;;;;;;;;5027790;28;20116;-67
2022/07/06 05:14:39;;;;;;;8.13;7.32;;;;;;;;;;5027132;28;20040;-67
2022/07/06 05:17:06;;;;;;;8.10;7.40;;;;;;;;;;5013820;28;20080;-66
2022/07/06 05:19:33;;;;;;;9.18;8.23;;;;;;;;;;5026354;28;20039;-66
2022/07/06 05:21:58;;;;;;;8.63;7.88;;;;;;;;;;5027841;28;20063;-66
2022/07/06 05:24:24;;;;;;;9.68;8.13;;;;;;;;;;5028677;28;20301;-66
2022/07/06 05:26:50;;;;;;;8.82;8.20;;;;;;;;;;5027577;28;20480;-66
2022/07/06 05:29:16;;;;;;;8.60;7.90;;;;;;;;;;5012071;28;20033;-66
2022/07/06 05:31:43;;;;;;;8.82;7.90;;;;;;;;;;5030891;28;20323;-66
2022/07/06 05:34:09;;;;;;;8.50;7.70;;;;;;;;;;5028624;28;20401;-66
2022/07/06 05:36:35;;;;;;;8.82;8.02;;;;;;;;;;5028616;28;20030;-66
2022/07/06 05:39:02;;;;;;;9.80;8.07;;;;;;;;;;5029091;28;20616;-66
2022/07/06 05:41:29;;;;;;;8.63;7.80;;;;;;;;;;5027710;28;20045;-66
2022/07/06 05:43:55;;;;;;;8.45;7.55;;;;;;;;;;5023105;28;20036;-66
2022/07/06 05:46:20;;;;;;;10.27;8.15;;;;;;;;;;5031797;28;20041;-66
2022/07/06 05:51:31;;;;;;;9.45;8.15;;;;;;;;;;5026976;28;20464;-66
2022/07/06 05:53:57;;;;;;;8.90;7.80;;;;;;;;;;5025639;28;20477;-66
2022/07/06 05:56:23;;;;;;;8.52;7.70;;;;;;;;;;5030016;28;20087;-66
2022/07/06 05:58:48;;;;;;;8.52;7.80;;;;;;;;;;5027712;28;20422;-66
2022/07/06 06:01:14;;;;;;;9.80;7.80;;;;;;;;;;5028295;28;20108;-67
2022/07/06 06:03:44;;;;;;;8.02;7.43;;;;;;;;;;5028434;28;20029;-66
2022/07/06 06:06:11;;;;;;;8.90;8.02;;;;;;;;;;5028255;28;20040;-67
2022/07/06 06:08:37;;;;;;;8.70;7.90;;;;;;;;;;5026761;28;20048;-66
2022/07/06 06:11:03;;;;;;;9.18;7.88;;;;;;;;;;5029007;28;20041;-66
2022/07/06 06:13:29;;;;;;;8.50;7.80;;;;;;;;;;5028706;28;20408;-66
2022/07/06 06:15:55;;;;;;;11.38;8.02;;;;;;;;;;5025445;28;20033;-66
2022/07/06 06:18:20;;;;;;;9.65;7.90;;;;;;;;;;5027842;28;20048;-67
2022/07/06 06:20:46;;;;;;;8.40;7.43;;;;;;;;;;5027764;28;20053;-66
2022/07/06 06:23:11;;;;;;;15.43;7.90;;;;;;;;;;5031200;28;20037;-67
2022/07/06 06:25:38;;;;;;;7.97;7.28;;;;;;;;;;5028541;28;20033;-66
2022/07/06 06:28:06;;;;;;;8.20;7.43;;;;;;;;;;5026915;28;20060;-66
2022/07/06 06:30:32;;;;;;;7.83;7.10;;;;;;;;;;5028120;28;20033;-67
2022/07/06 06:33:25;;;;;;;7.60;6.90;;;;;;;;;;5026096;28;20029;-67
2022/07/06 06:35:52;;;;;;;7.70;7.00;;;;;;;;;;5019994;28;20041;-66
2022/07/06 06:38:19;;;;;;;9.38;7.32;;;;;;;;;;5025674;28;20037;-66
2022/07/06 06:40:45;;;;;;;7.88;7.15;;;;;;;;;;5023399;28;20289;-66
2022/07/06 06:43:11;;;;;;;8.95;6.97;;;;;;;;;;5026662;28;20073;-66
2022/07/06 06:45:44;;;;;;;7.38;6.78;;;;;;;;;;5024897;28;20026;-66
2022/07/06 06:48:10;;;;;;;8.60;6.85;;;;;;;;;;5024375;28;20056;-67
2022/07/06 06:50:36;;;;;;;7.55;6.90;;;;;;;;;;5023498;28;20113;-67
2022/07/06 06:53:02;;;;;;;8.27;6.75;;;;;;;;;;5025960;28;20432;-66
2022/07/06 06:55:28;;;;;;;7.63;6.88;;;;;;;;;;5029455;28;20042;-66
2022/07/06 06:57:53;;;;;;;8.05;7.30;;;;;;;;;;5027480;28;20037;-68
2022/07/06 07:00:19;;;;;;;8.07;7.28;;;;;;;;;;5027669;28;20489;-67
2022/07/06 07:02:46;;;;;;;8.00;7.18;;;;;;;;;;5027681;28;20072;-67
2022/07/06 07:05:12;;;;;;;7.75;6.82;;;;;;;;;;5025916;28;20033;-67
2022/07/06 07:07:38;;;;;;;7.53;6.82;;;;;;;;;;5029041;28;20034;-68
2022/07/06 07:10:05;;;;;;;7.78;7.07;;;;;;;;;;5025883;28;20033;-68
2022/07/06 07:12:31;;;;;;;10.23;7.40;;;;;;;;;;5032402;28;20049;-67
2022/07/06 07:14:56;;;;;;;7.63;6.97;;;;;;;;;;5032018;28;20037;-68
2022/07/06 07:17:22;;;;;;;7.50;6.75;;;;;;;;;;5029279;28;20033;-67
2022/07/06 07:19:48;;;;;;;7.70;7.00;;;;;;;;;;5027302;28;20536;-67
2022/07/06 07:22:14;;;;;;;7.57;6.88;;;;;;;;;;5027238;28;20035;-67
2022/07/06 07:24:39;;;;;;;7.47;6.88;;;;;;;;;;5028851;28;20030;-67
2022/07/06 07:27:05;;;;;;;7.20;6.50;;;;;;;;;;5031478;28;20045;-67
2022/07/06 07:29:31;;;;;;;7.85;7.30;;;;;;;;;;5028471;28;20041;-67
2022/07/06 07:31:56;;;;;;;8.07;7.22;;;;;;;;;;5027965;28;20037;-67
2022/07/06 07:34:22;;;;;;;7.72;6.93;;;;;;;;;;5026110;28;20034;-67
2022/07/06 07:36:47;;;;;;;8.40;7.05;;;;;;;;;;5028406;28;20108;-67
2022/07/06 07:39:13;;;;;;;8.95;6.72;;;;;;;;;;5026893;28;20035;-67
2022/07/06 07:41:39;;;;;;;6.93;6.35;;;;;;;;;;5027119;28;20386;-68
2022/07/06 07:44:04;;;;;;;7.38;6.68;;;;;;;;;;5024581;28;20477;-67
2022/07/06 07:46:30;;;;;;;8.07;6.97;;;;;;;;;;5026922;28;20052;-67
2022/07/06 07:48:56;;;;;;;7.95;6.90;;;;;;;;;;5026354;28;20346;-67
2022/07/06 07:51:22;;;;;;;8.00;7.25;;;;;;;;;;5024259;28;20033;-67
2022/07/06 07:53:48;;;;;;;7.18;6.63;;;;;;;;;;5024474;28;20041;-67
2022/07/06 07:56:13;;;;;;;7.30;6.60;;;;;;;;;;5027986;28;20037;-67
2022/07/06 07:58:39;;;;;;;10.15;6.90;;;;;;;;;;5028384;28;20485;-67
2022/07/06 08:01:05;;;;;;;7.10;6.60;;;;;;;;;;5039340;28;20033;-67
2022/07/06 08:03:31;;;;;;;9.35;6.25;;;;;;;;;;5026339;28;20052;-67
2022/07/06 08:05:57;;;;;;;10.23;7.00;;;;;;;;;;5027101;28;20026;-67
2022/07/06 08:08:23;;;;;;;7.30;6.60;;;;;;;;;;5026898;28;20049;-67
2022/07/06 08:10:48;;;;;;;7.07;6.47;;;;;;;;;;5025526;28;20144;-67
2022/07/06 08:13:14;;;;;;;7.85;6.32;;;;;;;;;;5028397;28;20389;-67
2022/07/06 08:15:40;;;;;;;7.45;6.30;;;;;;;;;;5027358;28;20450;-67
2022/07/06 08:18:06;;;;;;;6.97;6.28;;;;;;;;;;5024377;28;20130;-67
2022/07/06 08:20:31;;;;;;;7.63;6.85;;;;;;;;;;5029339;28;20496;-67
2022/07/06 08:22:57;;;;;;;6.95;6.45;;;;;;;;;;5029478;28;20096;-67
2022/07/06 08:25:22;;;;;;;7.20;6.50;;;;;;;;;;5026501;28;20030;-67
2022/07/06 08:27:48;;;;;;;9.55;6.97;;;;;;;;;;5024413;28;20081;-67
2022/07/06 08:30:14;;;;;;;10.50;7.00;;;;;;;;;;5023402;28;20030;-67
2022/07/06 08:32:41;;;;;;;10.30;6.22;;;;;;;;;;5027848;28;20064;-67
2022/07/06 08:35:07;;;;;;;6.95;5.97;;;;;;;;;;5021112;28;20037;-67
2022/07/06 08:37:33;;;;;;;7.30;6.70;;;;;;;;;;5022728;28;20037;-68
2022/07/06 08:39:59;;;;;;;7.90;6.05;;;;;;;;;;5024654;28;20037;-67
2022/07/06 08:42:30;;;;;;;8.80;6.05;;;;;;;;;;5024449;28;20588;-67
2022/07/06 08:44:58;;;;;;;11.02;6.25;;;;;;;;;;5026951;28;20072;-67
2022/07/06 08:47:26;;;;;;;6.88;6.00;;;;;;;;;;5019604;28;20496;-67
2022/07/06 08:49:53;;;;;;;7.70;6.50;;;;;;;;;;5026663;28;20040;-67
2022/07/06 08:52:19;;;;;;;9.15;6.70;;;;;;;;;;5028606;28;20280;-67
2022/07/06 08:54:45;;;;;;;6.75;5.95;;;;;;;;;;5029515;28;20063;-67
2022/07/06 08:57:11;;;;;;;6.88;6.22;;;;;;;;;;5030419;28;20037;-67
2022/07/06 08:59:38;;;;;;;7.43;6.63;;;;;;;;;;5030761;28;20044;-67
2022/07/06 09:02:04;;;;;;;7.38;6.78;;;;;;;;;;5029860;28;20045;-67
2022/07/06 09:04:32;;;;;;;7.40;6.55;;;;;;;;;;5026319;28;20040;-68
2022/07/06 09:06:58;;;;;;;10.38;6.47;;;;;;;;;;5029019;28;20436;-67
2022/07/06 09:09:24;;;;;;;6.78;6.18;;;;;;;;;;5029382;28;20034;-67
2022/07/06 09:11:50;;;;;;;8.95;6.35;;;;;;;;;;5029414;28;20057;-67
2022/07/06 09:14:17;;;;;;;6.97;6.18;;;;;;;;;;5027878;28;20037;-67
2022/07/06 09:16:43;;;;;;;9.80;6.00;;;;;;;;;;5029941;28;20455;-67
2022/07/06 09:19:13;;;;;;;9.88;6.55;;;;;;;;;;5030175;28;20056;-67
2022/07/06 09:21:41;;;;;;;9.63;6.50;;;;;;;;;;5022697;28;20037;-67
2022/07/06 09:24:09;;;;;;;7.30;6.78;;;;;;;;;;5030636;28;20984;-66
2022/07/06 09:26:35;;;;;;;9.80;6.50;;;;;;;;;;5034951;28;20120;-67
2022/07/06 09:29:01;;;;;;;7.00;6.30;;;;;;;;;;5027843;28;21356;-67
2022/07/06 09:31:27;;;;;;;9.15;5.88;;;;;;;;;;5029777;28;20586;-69
2022/07/06 09:33:57;;;;;;;7.28;6.60;;;;;;;;;;5028418;28;20056;-67
2022/07/06 09:36:46;;;;;;;7.13;6.50;;;;;;;;;;5028524;28;20048;-67
2022/07/06 09:39:14;;;;;;;7.05;6.30;;;;;;;;;;5025005;28;20052;-67
2022/07/06 09:41:40;;;;;;;10.25;6.35;;;;;;;;;;5028732;28;20032;-67
2022/07/06 09:44:06;;;;;;;8.52;6.20;;;;;;;;;;5027866;28;20083;-67
2022/07/06 09:46:40;;;;;;;7.43;6.20;;;;;;;;;;5025259;28;20485;-67
2022/07/06 09:49:06;;;;;;;7.72;6.20;;;;;;;;;;5030028;28;20077;-67
2022/07/06 09:51:35;;;;;;;7.35;6.45;;;;;;;;;;5030859;28;20029;-67
2022/07/06 09:54:05;;;;;;;7.75;6.70;;;;;;;;;;5023640;28;20041;-68
2022/07/06 09:56:43;;;;;;;9.00;6.25;;;;;;;;;;5027917;28;20436;-67
2022/07/06 09:59:13;;;;;;;7.57;6.35;;;;;;;;;;5029769;28;20041;-67
2022/07/06 10:01:39;;;;;;;7.53;6.82;;;;;;;;;;5029412;28;20120;-67
2022/07/06 10:04:06;;;;;;;7.28;6.60;;;;;;;;;;5026648;28;20041;-67
2022/07/06 10:06:32;;;;;;;7.22;6.63;;;;;;;;;;5024952;28;20029;-67
2022/07/06 10:08:58;;;;;;;6.90;6.20;;;;;;;;;;5024333;28;20481;-67
2022/07/06 10:11:25;;;;;;;6.78;6.07;;;;;;;;;;5025043;28;20504;-67
2022/07/06 10:13:56;;;;;;;8.82;6.70;;;;;;;;;;5025880;28;20033;-67
2022/07/06 10:16:23;;;;;;;6.63;6.03;;;;;;;;;;5024513;28;20072;-67
2022/07/06 10:18:50;;;;;;;6.35;5.75;;;;;;;;;;5025586;28;20037;-67
2022/07/06 10:21:18;;;;;;;8.05;6.13;;;;;;;;;;5024367;28;20129;-67
2022/07/06 10:23:44;;;;;;;6.65;5.95;;;;;;;;;;5020756;28;20033;-67
2022/07/06 10:26:10;;;;;;;11.15;6.47;;;;;;;;;;5027362;28;20029;-67
2022/07/06 10:28:37;;;;;;;6.80;6.20;;;;;;;;;;5023713;28;20409;-67
2022/07/06 10:31:03;;;;;;;7.07;6.40;;;;;;;;;;5023775;28;20370;-67
2022/07/06 10:33:30;;;;;;;7.93;6.68;;;;;;;;;;5020481;28;20452;-66
2022/07/06 10:35:56;;;;;;;6.97;6.28;;;;;;;;;;5019044;28;20096;-67
2022/07/06 10:38:32;;;;;;;7.50;5.60;;;;;;;;;;5021099;28;20033;-66
2022/07/06 10:41:06;;;;;;;6.38;5.85;;;;;;;;;;5021122;28;20071;-68
2022/07/06 10:43:50;;;;;;;10.55;6.93;;;;;;;;;;5019510;28;20073;-68
2022/07/06 10:46:17;;;;;;;8.35;6.80;;;;;;;;;;5020222;28;20032;-68
2022/07/06 10:48:47;;;;;;;7.43;5.93;;;;;;;;;;5019413;28;20432;-68
2022/07/06 10:51:23;;;;;;;6.55;6.03;;;;;;;;;;5028885;28;20092;-68
2022/07/06 10:53:58;;;;;;;6.72;6.13;;;;;;;;;;5022677;28;20112;-68
2022/07/06 10:56:37;;;;;;;6.43;5.70;;;;;;;;;;5025515;28;20052;-67
2022/07/06 10:59:09;;;;;;;;;;;;;;;;;;5026332;28;20041;-68
2022/07/06 11:01:34;;;;;;;6.43;5.82;;;;;;;;;;5025240;28;19912;-68
2022/07/06 11:04:01;;;;;;;6.53;5.78;;;;;;;;;;5023422;28;20044;-67
2022/07/06 11:06:26;;;;;;;9.90;5.90;;;;;;;;;;5024413;28;20064;-68
2022/07/06 11:09:05;;;;;;;7.90;5.97;;;;;;;;;;5028618;28;20443;-68
2022/07/06 11:11:31;;;;;;;7.93;5.90;;;;;;;;;;5026633;28;20049;-67
2022/07/06 11:14:05;;;;;;;7.85;5.90;;;;;;;;;;5025806;28;20052;-68
2022/07/06 11:16:39;;;;;;;9.55;6.28;;;;;;;;;;5027505;28;20156;-67
2022/07/06 11:19:09;;;;;;;6.75;6.10;;;;;;;;;;5028007;28;20030;-67
2022/07/06 11:21:46;;;;;;;7.15;5.82;;;;;;;;;;5029600;28;20029;-67
2022/07/06 11:24:14;;;;;;;6.25;5.75;;;;;;;;;;5023420;28;20044;-68
2022/07/06 11:26:42;;;;;;;9.57;6.28;;;;;;;;;;5027032;28;20029;-67
2022/07/06 11:29:10;;;;;;;8.38;5.95;;;;;;;;;;5026868;28;20408;-68
2022/07/06 11:31:37;;;;;;;10.55;6.00;;;;;;;;;;5026535;28;20048;-67
2022/07/06 11:34:05;;;;;;;6.72;6.10;;;;;;;;;;5025570;28;20120;-67
2022/07/06 11:36:31;;;;;;;6.15;5.65;;;;;;;;;;5026922;28;20053;-67
2022/07/06 11:38:56;;;;;;;6.32;5.85;;;;;;;;;;5023583;28;20033;-67
2022/07/06 11:41:22;;;;;;;6.78;5.82;;;;;;;;;;5023955;28;20038;-67
2022/07/06 11:43:50;;;;;;;7.65;6.38;;;;;;;;;;5018838;28;20034;-68
2022/07/06 11:46:20;;;;;;;;;;;;;;;;;;5024063;28;20056;-67
2022/07/06 11:48:50;;;;;;;7.03;6.32;;;;;;;;;;5023840;28;20419;-67
2022/07/06 11:51:16;;;;;;;7.60;6.90;;;;;;;;;;5021922;28;20033;-68
2022/07/06 11:53:46;;;;;;;7.95;6.20;;;;;;;;;;5020316;28;20040;-68
2022/07/06 11:56:14;;;;;;;9.35;6.15;;;;;;;;;;5027241;28;20032;-68
2022/07/06 11:58:42;;;;;;;6.70;6.10;;;;;;;;;;5024914;28;20052;-67
2022/07/06 12:01:11;;;;;;;6.93;6.25;;;;;;;;;;5026216;28;20048;-68
2022/07/06 12:03:37;;;;;;;7.07;6.38;;;;;;;;;;5024152;28;20572;-67
2022/07/06 12:06:04;;;;;;;6.43;5.93;;;;;;;;;;5028083;28;20076;-67
2022/07/06 12:08:30;;;;;;;9.32;6.80;;;;;;;;;;5024789;28;20037;-67
2022/07/06 12:10:58;;;;;;;8.57;6.32;;;;;;;;;;5022152;28;20040;-68
2022/07/06 12:13:24;;;;;;;8.80;6.20;;;;;;;;;;5028259;28;20409;-67
2022/07/06 12:15:50;;;;;;;7.40;6.70;;;;;;;;;;5026421;28;20069;-67
2022/07/06 12:18:16;;;;;;;7.45;6.20;;;;;;;;;;5033028;28;20094;-67
2022/07/06 12:20:42;;;;;;;8.00;6.40;;;;;;;;;;5030450;28;20512;-69
2022/07/06 12:23:08;;;;;;;8.15;6.38;;;;;;;;;;5033968;28;20029;-68
2022/07/06 12:25:35;;;;;;;7.07;6.13;;;;;;;;;;5038896;28;20359;-68
2022/07/06 12:28:01;;;;;;;7.18;6.47;;;;;;;;;;5028992;28;20037;-66
2022/07/06 12:30:27;;;;;;;6.45;5.85;;;;;;;;;;5029181;28;20072;-66
2022/07/06 12:33:16;;;;;;;7.43;6.40;;;;;;;;;;5028765;28;20505;-66
2022/07/06 12:35:42;;;;;;;10.07;6.22;;;;;;;;;;5025230;28;20041;-66
2022/07/06 12:38:08;;;;;;;7.25;6.60;;;;;;;;;;5026357;28;20037;-67
2022/07/06 12:40:36;;;;;;;7.18;6.50;;;;;;;;;;5028019;28;20045;-66
2022/07/06 12:43:05;;;;;;;7.23;6.63;;;;;;;;;;5011681;28;20052;-67
2022/07/06 12:45:31;;;;;;;7.18;6.57;;;;;;;;;;5027171;28;20029;-67
2022/07/06 12:48:01;;;;;;;9.85;6.55;;;;;;;;;;5025120;28;20040;-66
2022/07/06 12:50:34;;;;;;;7.25;6.53;;;;;;;;;;5028930;28;20052;-66
2022/07/06 12:53:00;;;;;;;9.52;6.22;;;;;;;;;;5027927;28;20037;-66
2022/07/06 12:55:30;;;;;;;8.00;6.63;;;;;;;;;;5028941;28;20132;-66
2022/07/06 12:57:57;;;;;;;6.75;6.30;;;;;;;;;;5021275;28;20423;-66
2022/07/06 13:00:23;;;;;;;6.88;5.90;;;;;;;;;;5029418;28;20025;-66
2022/07/06 13:02:56;;;;;;;7.15;6.60;;;;;;;;;;5028140;28;20116;-66
2022/07/06 13:05:30;;;;;;;8.18;6.40;;;;;;;;;;5025124;28;20099;-66
2022/07/06 13:07:57;;;;;;;6.97;6.45;;;;;;;;;;5025204;28;20044;-66
2022/07/06 13:10:24;;;;;;;11.10;6.82;;;;;;;;;;5027770;28;20083;-66
2022/07/06 13:12:50;;;;;;;8.07;6.55;;;;;;;;;;5026206;28;20543;-66
2022/07/06 13:15:16;;;;;;;8.00;6.88;;;;;;;;;;5021616;28;20034;-67
2022/07/06 13:17:42;;;;;;;9.32;6.63;;;;;;;;;;5023161;28;20092;-66
2022/07/06 13:20:12;;;;;;;7.10;6.50;;;;;;;;;;5025952;28;20033;-66
2022/07/06 13:22:39;;;;;;;8.35;6.75;;;;;;;;;;5021539;28;20045;-66
2022/07/06 13:25:05;;;;;;;6.90;6.30;;;;;;;;;;5022350;28;20109;-66
2022/07/06 13:27:31;;;;;;;7.35;6.50;;;;;;;;;;5023512;28;20033;-66
2022/07/06 13:29:56;;;;;;;6.95;6.28;;;;;;;;;;5026547;28;20087;-68
2022/07/06 13:32:22;;;;;;;7.55;6.72;;;;;;;;;;5025831;28;20071;-68
2022/07/06 13:34:48;;;;;;;6.88;6.15;;;;;;;;;;5022794;28;20074;-68
2022/07/06 13:37:14;;;;;;;7.65;6.50;;;;;;;;;;5027547;28;20473;-68
2022/07/06 13:39:40;;;;;;;8.60;6.85;;;;;;;;;;5024203;28;20029;-67
2022/07/06 13:42:07;;;;;;;9.23;6.00;;;;;;;;;;5024707;28;20041;-67
2022/07/06 13:44:33;;;;;;;8.57;7.07;;;;;;;;;;5026497;28;20091;-67
2022/07/06 13:46:59;;;;;;;7.18;6.57;;;;;;;;;;5028630;28;20041;-68
2022/07/06 13:49:24;;;;;;;6.57;5.97;;;;;;;;;;5022500;28;20112;-67
2022/07/06 13:51:50;;;;;;;10.40;6.22;;;;;;;;;;5024935;28;20042;-67
2022/07/06 13:54:16;;;;;;;8.30;6.22;;;;;;;;;;5018602;28;20694;-67
2022/07/06 13:56:41;;;;;;;7.00;6.30;;;;;;;;;;5022484;28;20025;-68
2022/07/06 13:59:07;;;;;;;10.50;6.90;;;;;;;;;;5023391;28;20045;-68
2022/07/06 14:01:32;;;;;;;7.43;5.93;;;;;;;;;;5023045;28;20038;-67
2022/07/06 14:03:58;;;;;;;7.53;6.88;;;;;;;;;;5024807;28;20064;-67
2022/07/06 14:06:24;;;;;;;7.70;7.10;;;;;;;;;;5026948;28;20281;-67
2022/07/06 14:08:50;;;;;;;7.57;6.88;;;;;;;;;;5025787;28;20259;-67
2022/07/06 14:11:15;;;;;;;7.90;7.20;;;;;;;;;;5025701;28;20045;-67
2022/07/06 14:13:41;;;;;;;10.20;7.55;;;;;;;;;;5025144;28;20041;-67
2022/07/06 14:16:07;;;;;;;7.22;6.63;;;;;;;;;;5021655;28;21032;-67
2022/07/06 14:18:32;;;;;;;7.30;6.60;;;;;;;;;;5025008;28;20040;-66
2022/07/06 14:21:00;;;;;;;7.72;6.53;;;;;;;;;;5025023;28;20293;-67
2022/07/06 14:23:26;;;;;;;7.30;6.40;;;;;;;;;;5025568;28;20041;-67
2022/07/06 14:25:51;;;;;;;9.75;6.45;;;;;;;;;;5020205;28;20034;-67
2022/07/06 14:28:17;;;;;;;7.47;6.78;;;;;;;;;;5019976;28;20038;-68
2022/07/06 14:30:45;;;;;;;7.65;6.72;;;;;;;;;;5025850;28;20116;-67
2022/07/06 14:33:13;;;;;;;8.57;6.68;;;;;;;;;;5027270;28;20084;-66
2022/07/06 14:35:41;;;;;;;7.50;6.03;;;;;;;;;;5026532;28;20034;-67
2022/07/06 14:38:07;;;;;;;7.65;6.72;;;;;;;;;;5028048;28;20448;-67
2022/07/06 14:40:34;;;;;;;7.22;6.30;;;;;;;;;;5028304;28;20037;-67
2022/07/06 14:43:00;;;;;;;6.72;6.13;;;;;;;;;;5029829;28;20064;-67
2022/07/06 14:45:26;;;;;;;6.63;6.13;;;;;;;;;;5026470;28;20030;-67